Detall de PIREP

Printer-friendly versionPDF version

[2017/09/17 15:26:00]
Flight IATA:CT3204
Pilot Number:042
Company ICAO:CAT
Aircraft Type:B738/F
PAX:95
Departing Airport: LEPA
Destination Airport: EDDT
Alternate Airport:EDDB
Online: VATSIM
Route:MEROS UN853 MOBLO UZ662 LAMUR UZ67 KORED UN871 DITON T163 ZUE T125 ROMIR UN851 LOHRE UN746 ROBEL T200 RUDAK
Flight Level:F360
No Slew and time accel
No pause
Crash detect
Detect pilot in Cockpit between each 30 and 45 minutes
15:26 Zero fuel Weight: 121806 Lbs, Fuel Weight: 46056 Lbs
15:26 VATSIM:LEPA 171500Z 21007KT 160V260 9999 FEW025 24/16 Q1017 NOSIG
15:26 VATSIM:EDDT 171450Z 03004KT 350V070 9999 FEW048 BKN090 17/07 Q1012 NOSIG
15:33 Parking Brakes off
15:42 Take-off
15:42 Take off Weight: 166919 Lbs
15:42 Wind: 216º @ 007 Knots Heading: 237º
15:42 POS N39º 33´ 06´´ E002º 43´ 13´´
15:42 Flaps:4 at 174 Knots
15:42 Gear Up: 175 Knots
15:42 Flaps:3 at 174 Knots
15:43Flaps:2 at 191 Knots
15:43 Flaps:1 at 206 Knots
15:43 Flaps:0 at 229 Knots
15:57 Wind:260º@054 Knots Heading: 057º Ground Speed: 509 Knots Altitude 27086 ft
16:04 TOC
16:04 Fuel Weight: 40641 Lb
16:12 Wind:268º@066 Knots Heading: 002º Ground Speed: 461 Knots Altitude 36092 ft
16:27 Wind:270º@083 Knots Heading: 354º Ground Speed: 466 Knots Altitude 38005 ft
16:42 Wind:270º@080 Knots Heading: 347º Ground Speed: 463 Knots Altitude 37959 ft
16:57 Wind:265º@056 Knots Heading: 048º Ground Speed: 520 Knots Altitude 38018 ft
17:12 Wind:248º@037 Knots Heading: 001º Ground Speed: 488 Knots Altitude 37992 ft
17:27 Wind:225º@027 Knots Heading: 035º Ground Speed: 497 Knots Altitude 37982 ft
17:31 TOD
17:31 Fuel Weight: 32636 Lb
17:42 Wind:218º@019 Knots Heading: 059º Ground Speed: 368 Knots Altitude 18779 ft
17:52 Flaps:1 at 239 Knots
17:53 Gear Down: 271 Knots
17:53 Flaps:2 at 273 Knots
17:53 Flaps:3 at 276 Knots
17:53 Flaps:4 at 279 Knots
17:54 Flaps:5 at 280 Knots
17:54 Flaps:6 at 275 Knots
17:54 Flaps:7 at 262 Knots
17:56 Flaps:8 at 154 Knots
17:56 TouchDown:Rate -165 ft/min Speed: 145 Knots
17:56 VATSIM:EDDT 171720Z VRB01KT CAVOK 14/08 Q1012 NOSIG
17:56 Land
17:56 Wind:115º@001 Knots
17:56 Heading: 008º
17:56 Flight Duration: 02:14
17:56 Landing Weight: 153527 Lbs
17:56 POS N52º 33´ 48´´ E013º 18´ 53´´
18:00 Parking brakes on
18:00 Block to Block Duration: 02:27
18:00 Final Fuel: 31364 Lbls
18:00 Spent Fuel: 14691 Lbls
18:00 Flight Length: 1010 NM
18:00 TOD Land Length: 145 NM

Exportar CSV

Powered by Drupal - Modified by Danger4k